This is the latest recevied weather packets stored in our database for station/object KD5BIG-13. If no packets are shown the sender has not sent any weather packets the latest 10 day(s).
| Time | Temp. | Humidity | Pressure | Rain* | Wind** | Luminosity | Snow |
|---|---|---|---|---|---|---|---|
| 1777776566 | 10.56° C | 94% | 1023.8 hPa | 0 mm | - | 0 W/m² | - |
| 1777776262 | 10.56° C | 94% | 1023.7 hPa | 0 mm | - | 0 W/m² | - |
| 1777775960 | 11.11° C | 93% | 1023.6 hPa | 0 mm | - | 0 W/m² | - |
| 1777775656 | 11.11° C | 93% | 1023.4 hPa | 0 mm | - | 0 W/m² | - |
| 1777775353 | 11.11° C | 93% | 1023.5 hPa | 0 mm | - | 0 W/m² | - |
| 1777775048 | 11.67° C | 92% | 1023.4 hPa | 0 mm | - | 0 W/m² | - |
| 1777774440 | 11.67° C | 91% | 1023.2 hPa | 0 mm | - | 0 W/m² | - |
| 1777774138 | 11.67° C | 90% | 1023.2 hPa | 0 mm | - | 0 W/m² | - |
| 1777773532 | 12.22° C | 88% | 1023 hPa | 0 mm | - | 0 W/m² | - |
| 1777773229 | 12.22° C | 87% | 1023.1 hPa | 0 mm | - | 0 W/m² | - |
| 1777772320 | 12.78° C | 84% | 1022.8 hPa | 0 mm | - | 0 W/m² | - |
| 1777771412 | 13.89° C | 79% | 1022.8 hPa | 0 mm | - | 0 W/m² | - |
| 1777770199 | 14.44° C | 73% | 1022.6 hPa | 0 mm | - | 0 W/m² | - |
| 1777768381 | 17.22° C | 62% | 1022.4 hPa | 0 mm | - | 9 W/m² | - |
| 1777768078 | 17.22° C | 61% | 1022.3 hPa | 0 mm | - | 12 W/m² | - |
| 1777767167 | 18.89° C | 56% | 1022.4 hPa | 0 mm | - | 21 W/m² | - |
| 1777765653 | 20° C | 44% | 1022.1 hPa | 0 mm | - | 31 W/m² | - |
| 1777765046 | 20° C | 42% | 1022 hPa | 0 mm | - | 34 W/m² | - |
| 1777764439 | 20.56° C | 42% | 1021.9 hPa | 0 mm | - | 37 W/m² | - |
| 1777763833 | 20.56° C | 43% | 1021.8 hPa | 0 mm | - | 41 W/m² | - |
| 1777761713 | 20.56° C | 41% | 1021.7 hPa | 0 mm | - | 45 W/m² | - |
| 1777761411 | 20.56° C | 39% | 1021.7 hPa | 0 mm | - | 46 W/m² | - |
| 1777761109 | 21.11° C | 40% | 1021.5 hPa | 0 mm | - | 46 W/m² | - |
| 1777760806 | 21.11° C | 43% | 1021.5 hPa | 0 mm | - | 47 W/m² | - |
| 1777760502 | 21.11° C | 40% | 1021.4 hPa | 0 mm | - | 48 W/m² | - |
* Rain latest hour (hover to see other rain measurements)
** Current wind speed in m/s (hover to see current wind gust speed)